Time;durP1;ratioP1;P1;durP2;ratioP2;P2;SDS_P1;SDS_P2;PMS_P1;PMS_P2;Temp;Humidity;BMP_temperature;BMP_pressure;BME280_temperature;BME280_humidity;BME280_pressure;Samples;Min_cycle;Max_cycle;Signal;HPM_P1;HPM_P2
2023/08/30 00:03:05;;;;;;;3.20;1.05;;;;;;;21.13;48.17;100839.19;16139750;19;130006;-57
2023/08/30 00:08:28;;;;;;;2.70;1.10;;;;;;;21.12;48.19;100829.16;16148812;19;128990;-56
2023/08/30 00:13:50;;;;;;;2.33;0.80;;;;;;;21.11;48.40;100816.38;16131979;19;130483;-59
2023/08/30 00:19:12;;;;;;;0.68;0.60;;;;;;;21.11;48.41;100819.16;16143964;19;130506;-57
2023/08/30 00:24:35;;;;;;;2.90;1.17;;;;;;;21.10;48.34;100817.47;16165107;19;128979;-58
2023/08/30 00:29:57;;;;;;;3.85;0.75;;;;;;;21.09;48.36;100796.31;16165220;19;129767;-58
2023/08/30 00:35:18;;;;;;;1.35;0.80;;;;;;;21.08;48.19;100786.28;16170625;19;128942;-57
2023/08/30 00:40:40;;;;;;;1.65;0.95;;;;;;;21.07;48.32;100779.03;16167974;19;130367;-57
2023/08/30 00:46:03;;;;;;;1.38;0.80;;;;;;;21.08;48.50;100775.16;16168946;19;129102;-56
2023/08/30 00:51:26;;;;;;;1.58;0.80;;;;;;;21.06;48.52;100769.88;16178030;19;128908;-58
2023/08/30 00:56:48;;;;;;;1.77;0.90;;;;;;;21.07;48.17;100756.78;16173439;19;129173;-58
2023/08/30 01:02:10;;;;;;;3.08;1.10;;;;;;;21.05;48.18;100759.00;16166853;19;128708;-58
2023/08/30 01:07:32;;;;;;;1.63;0.82;;;;;;;21.06;48.21;100755.97;16167083;19;129036;-56
2023/08/30 01:13:04;;;;;;;1.13;0.82;;;;;;;21.06;48.42;100752.34;16134809;19;132162;-58
2023/08/30 01:18:30;;;;;;;1.83;0.70;;;;;;;21.06;48.38;100752.34;16121392;19;130603;-57
2023/08/30 01:24:02;;;;;;;1.23;0.68;;;;;;;21.06;48.36;100753.19;16123051;19;130439;-57
2023/08/30 01:29:26;;;;;;;0.85;0.70;;;;;;;21.03;48.40;100747.34;16125744;19;131038;-58
2023/08/30 01:34:50;;;;;;;1.33;0.70;;;;;;;21.02;48.33;100743.69;16118663;19;130424;-58
2023/08/30 01:40:15;;;;;;;0.80;0.55;;;;;;;21.03;48.16;100750.13;16115610;19;130995;-58
2023/08/30 01:45:40;;;;;;;1.73;0.80;;;;;;;21.02;48.44;100746.47;16120832;19;130359;-57
2023/08/30 01:51:03;;;;;;;1.17;0.70;;;;;;;21.02;48.11;100748.44;16115027;19;129977;-58
2023/08/30 01:56:25;;;;;;;0.45;0.45;;;;;;;21.02;48.61;100737.31;16117575;19;130554;-58
2023/08/30 02:01:47;;;;;;;1.85;0.70;;;;;;;21.00;48.14;100736.72;16116269;19;130913;-58
2023/08/30 02:07:22;;;;;;;1.75;0.77;;;;;;;21.02;48.39;100735.34;16118567;19;129708;-58
2023/08/30 02:12:48;;;;;;;1.27;0.57;;;;;;;21.01;48.61;100741.19;16121028;19;130041;-55
2023/08/30 02:18:10;;;;;;;0.90;0.57;;;;;;;20.99;48.37;100735.06;16115368;19;131172;-58
2023/08/30 02:23:32;;;;;;;1.15;0.73;;;;;;;20.99;48.25;100732.28;16105881;19;129990;-58
2023/08/30 02:28:54;;;;;;;0.98;0.65;;;;;;;20.99;48.22;100735.88;16107607;19;130422;-58
2023/08/30 02:34:16;;;;;;;1.20;0.57;;;;;;;20.98;48.51;100736.16;16120250;19;130402;-58
2023/08/30 02:39:38;;;;;;;0.63;0.57;;;;;;;20.98;48.19;100730.59;16117984;19;130251;-58
2023/08/30 02:45:00;;;;;;;1.88;0.75;;;;;;;20.98;48.34;100722.25;16119780;19;130518;-58
2023/08/30 02:50:24;;;;;;;1.17;0.68;;;;;;;20.97;48.13;100718.66;16119834;19;130654;-56
2023/08/30 02:55:47;;;;;;;3.47;0.68;;;;;;;20.96;48.16;100714.19;16120216;19;133343;-57
2023/08/30 03:01:09;;;;;;;1.25;0.70;;;;;;;20.95;48.14;100704.16;16116440;19;130859;-58
2023/08/30 03:06:34;;;;;;;1.05;0.55;;;;;;;20.95;48.53;100698.59;16117262;19;131153;-58
2023/08/30 03:11:56;;;;;;;1.23;0.63;;;;;;;20.94;48.32;100707.19;16118749;19;130048;-58
2023/08/30 03:17:18;;;;;;;2.75;0.73;;;;;;;20.94;48.39;100687.72;16120540;19;130371;-58
2023/08/30 03:22:41;;;;;;;0.77;0.60;;;;;;;20.95;48.45;100687.47;16122393;19;130835;-58
2023/08/30 03:28:03;;;;;;;0.93;0.55;;;;;;;20.94;48.52;100671.03;16118948;19;130984;-58
2023/08/30 03:33:25;;;;;;;1.52;0.70;;;;;;;20.94;48.55;100663.56;16120772;19;131054;-58
2023/08/30 03:38:47;;;;;;;1.15;0.50;;;;;;;20.92;48.34;100659.38;16122761;19;130042;-58
2023/08/30 03:44:09;;;;;;;1.48;0.63;;;;;;;20.92;48.20;100640.75;16120408;19;130233;-58
2023/08/30 03:49:31;;;;;;;1.25;0.60;;;;;;;20.90;48.26;100631.81;16114428;19;130667;-58
2023/08/30 03:54:53;;;;;;;0.80;0.50;;;;;;;20.89;48.47;100631.00;16116526;19;130187;-59
2023/08/30 04:00:15;;;;;;;0.63;0.43;;;;;;;20.89;48.29;100619.03;16115274;19;130797;-58
2023/08/30 04:05:38;;;;;;;0.65;0.50;;;;;;;20.88;48.25;100615.41;16117900;19;130857;-58
2023/08/30 04:10:59;;;;;;;0.68;0.40;;;;;;;20.88;48.18;100615.41;16120534;19;130667;-58
2023/08/30 04:16:21;;;;;;;1.02;0.73;;;;;;;20.87;48.08;100616.53;16118487;19;130599;-58
2023/08/30 04:21:43;;;;;;;1.10;0.60;;;;;;;20.87;48.23;100607.31;16118803;19;131323;-58
2023/08/30 04:27:05;;;;;;;0.70;0.65;;;;;;;20.87;48.36;100605.41;16118968;19;129836;-58
2023/08/30 04:32:27;;;;;;;0.50;0.40;;;;;;;20.87;48.45;100607.31;16117470;19;130267;-57
2023/08/30 04:37:49;;;;;;;0.77;0.50;;;;;;;20.86;48.23;100600.13;16111435;19;131852;-58
2023/08/30 04:43:12;;;;;;;0.70;0.70;;;;;;;20.86;48.41;100592.59;16110707;19;130188;-58
2023/08/30 04:48:33;;;;;;;0.60;0.50;;;;;;;20.85;48.31;100582.59;16115059;19;130188;-58
2023/08/30 04:53:55;;;;;;;0.52;0.35;;;;;;;20.85;48.20;100582.59;16111189;19;130613;-58
2023/08/30 04:59:17;;;;;;;1.05;0.47;;;;;;;20.84;48.16;100580.91;16113615;19;129412;-58
2023/08/30 05:04:39;;;;;;;1.23;0.50;;;;;;;20.84;48.06;100575.34;16116230;19;130377;-58
2023/08/30 05:10:02;;;;;;;0.90;0.50;;;;;;;20.85;48.35;100576.19;16118397;19;130825;-59
2023/08/30 05:15:25;;;;;;;0.43;0.40;;;;;;;20.83;48.26;100572.84;16111480;19;129816;-59
2023/08/30 05:20:47;;;;;;;0.80;0.60;;;;;;;20.83;48.44;100562.56;16117807;19;131071;-58
2023/08/30 05:26:12;;;;;;;2.38;0.55;;;;;;;20.83;48.10;100557.00;16116272;19;130044;-58
2023/08/30 05:31:34;;;;;;;0.50;0.50;;;;;;;20.81;48.14;100559.19;16113654;19;129604;-57
2023/08/30 05:36:56;;;;;;;2.47;0.90;;;;;;;20.82;48.27;100566.44;16113202;19;130337;-56
2023/08/30 05:42:18;;;;;;;1.48;0.82;;;;;;;20.81;47.81;100541.69;16112911;19;129658;-58
2023/08/30 05:47:40;;;;;;;1.73;0.77;;;;;;;20.81;48.02;100539.75;16111768;19;129795;-58
2023/08/30 05:53:03;;;;;;;1.10;0.80;;;;;;;20.80;47.97;100540.84;16112678;19;131476;-58
2023/08/30 05:58:26;;;;;;;2.20;1.15;;;;;;;20.80;47.97;100534.47;16115173;19;131319;-58
2023/08/30 06:03:47;;;;;;;1.80;0.93;;;;;;;20.79;47.82;100533.63;16114937;19;130337;-57
2023/08/30 06:09:11;;;;;;;2.17;0.95;;;;;;;20.79;47.61;100530.84;16110842;19;129622;-57
2023/08/30 06:14:33;;;;;;;2.80;1.20;;;;;;;20.78;47.79;100529.19;16110614;19;129739;-57
2023/08/30 06:19:55;;;;;;;3.08;1.10;;;;;;;20.77;47.64;100527.50;16110144;19;129423;-57
2023/08/30 06:25:17;;;;;;;4.75;1.30;;;;;;;20.77;47.83;100521.94;16108911;19;131574;-57
2023/08/30 06:30:39;;;;;;;3.67;1.50;;;;;;;20.77;47.61;100513.59;16109513;19;129990;-55
2023/08/30 06:36:01;;;;;;;2.63;1.30;;;;;;;20.76;47.58;100500.81;16109148;19;133974;-58
2023/08/30 06:41:23;;;;;;;2.67;1.50;;;;;;;20.75;47.35;100504.66;16103969;19;131359;-58
2023/08/30 06:46:45;;;;;;;2.13;1.38;;;;;;;20.75;47.74;100493.53;16111564;19;129580;-57
2023/08/30 06:52:08;;;;;;;4.38;1.33;;;;;;;20.75;47.38;100499.09;16103962;19;130359;-59
2023/08/30 06:57:30;;;;;;;2.63;1.45;;;;;;;20.75;47.35;100496.31;16103606;19;129360;-59
2023/08/30 07:02:51;;;;;;;10.68;1.80;;;;;;;20.74;47.18;100497.44;16100005;19;130016;-58
2023/08/30 07:08:14;;;;;;;3.45;1.35;;;;;;;20.74;47.53;100486.31;16100350;19;130455;-57
2023/08/30 07:13:36;;;;;;;5.65;1.50;;;;;;;20.73;47.37;100501.31;16103697;19;131157;-58
2023/08/30 07:18:58;;;;;;;8.15;1.48;;;;;;;20.73;47.33;100501.31;16109999;19;129789;-58
2023/08/30 07:24:22;;;;;;;3.75;1.45;;;;;;;20.73;47.15;100512.44;16123351;19;130148;-58
2023/08/30 07:29:44;;;;;;;4.90;1.67;;;;;;;20.71;47.44;100504.38;16122526;19;129857;-57
2023/08/30 07:35:07;;;;;;;8.88;1.85;;;;;;;20.70;47.03;100511.03;16120166;19;130699;-58
2023/08/30 07:40:29;;;;;;;3.17;1.25;;;;;;;20.69;47.13;100502.94;16120615;19;129816;-58
2023/08/30 07:45:51;;;;;;;5.07;1.77;;;;;;;20.69;47.08;100506.59;16124961;19;130852;-58
2023/08/30 07:51:13;;;;;;;3.72;1.67;;;;;;;20.70;47.18;100507.41;16117936;19;129873;-58
2023/08/30 07:56:34;;;;;;;8.73;1.50;;;;;;;20.68;46.87;100501.28;16120205;19;129851;-57
2023/08/30 08:01:56;;;;;;;4.15;1.55;;;;;;;20.67;47.12;100510.75;16116409;19;129730;-56
2023/08/30 08:07:18;;;;;;;2.53;1.45;;;;;;;20.66;47.17;100507.13;16122052;19;131512;-61
2023/08/30 08:12:40;;;;;;;5.47;1.48;;;;;;;20.65;46.87;100510.19;16120874;19;129250;-59
2023/08/30 08:18:03;;;;;;;3.35;1.45;;;;;;;20.65;46.96;100524.09;16118186;19;130983;-67
2023/08/30 08:23:25;;;;;;;2.70;1.10;;;;;;;20.64;46.92;100514.06;16116917;19;130853;-59
2023/08/30 08:28:47;;;;;;;4.35;1.30;;;;;;;20.64;47.32;100514.88;16116169;19;130791;-58
2023/08/30 08:34:13;;;;;;;5.72;1.50;;;;;;;20.65;47.27;100513.78;16113299;19;129605;-60
2023/08/30 08:39:36;;;;;;;4.60;1.25;;;;;;;20.65;47.24;100515.75;16111237;19;131090;-57
2023/08/30 08:44:59;;;;;;;2.60;1.10;;;;;;;20.66;47.26;100525.75;16115582;19;129537;-57
2023/08/30 08:50:22;;;;;;;6.03;1.23;;;;;;;20.68;47.42;100517.97;16116852;19;131126;-57
2023/08/30 08:55:45;;;;;;;2.55;1.40;;;;;;;20.70;47.25;100522.16;16117254;19;130424;-58
2023/08/30 09:01:07;;;;;;;3.78;1.30;;;;;;;20.74;46.94;100514.09;16117794;19;129876;-57
2023/08/30 09:06:45;;;;;;;47.05;2.72;;;;;;;20.76;47.39;100511.94;16114882;19;129567;-58
2023/08/30 09:12:07;;;;;;;24.33;3.08;;;;;;;20.77;47.28;100521.94;16111167;19;131183;-57
2023/08/30 09:17:37;;;;;;;25.02;2.35;;;;;;;20.82;47.33;100510.84;16114415;19;130162;-56
2023/08/30 09:22:59;;;;;;;23.23;2.65;;;;;;;20.85;46.96;100515.03;16114817;19;131159;-55
2023/08/30 09:28:21;;;;;;;21.95;2.45;;;;;;;20.85;47.00;100509.47;16113122;19;134044;-57
2023/08/30 09:33:45;;;;;;;32.20;4.00;;;;;;;20.94;46.87;100507.84;16112246;19;131831;-57
2023/08/30 09:39:12;;;;;;;23.60;2.85;;;;;;;21.01;47.18;100510.38;16113055;19;129799;-57
2023/08/30 09:44:34;;;;;;;18.42;2.42;;;;;;;21.11;46.94;100504.81;16111145;19;130933;-56
2023/08/30 09:50:00;;;;;;;17.23;2.25;;;;;;;21.17;46.84;100512.06;16110591;19;130196;-57
2023/08/30 09:55:22;;;;;;;17.33;2.17;;;;;;;21.22;46.91;100514.88;16110716;19;132090;-58
2023/08/30 10:00:44;;;;;;;12.20;2.15;;;;;;;21.20;46.88;100497.63;16112285;19;130547;-57
2023/08/30 10:06:07;;;;;;;14.55;2.00;;;;;;;21.22;46.64;100503.75;16107351;19;129872;-57
2023/08/30 10:11:29;;;;;;;14.52;1.75;;;;;;;21.23;46.87;100504.59;16110360;19;129739;-57
2023/08/30 10:16:58;;;;;;;13.70;2.25;;;;;;;21.21;46.78;100502.06;16105125;19;130686;-58
2023/08/30 10:22:21;;;;;;;11.48;1.50;;;;;;;21.21;47.08;100490.94;16111010;19;129560;-57
2023/08/30 10:27:46;;;;;;;6.10;1.52;;;;;;;21.24;47.04;100497.91;16110321;19;129542;-57
2023/08/30 10:33:13;;;;;;;7.82;1.77;;;;;;;21.21;46.91;100496.50;16109024;19;130942;-58
2023/08/30 10:38:39;;;;;;;9.05;1.77;;;;;;;21.20;47.30;100499.56;16104568;19;129471;-53
2023/08/30 10:44:03;;;;;;;10.02;2.22;;;;;;;21.19;47.25;100484.81;16102452;19;133866;-41
2023/08/30 10:49:26;;;;;;;13.82;2.55;;;;;;;21.16;47.44;100485.38;16110578;19;130683;-45
2023/08/30 10:54:50;;;;;;;14.77;2.35;;;;;;;21.20;47.38;100497.63;16116573;19;130731;-58
2023/08/30 11:00:19;;;;;;;9.73;2.30;;;;;;;21.25;47.40;100501.53;16120775;19;129772;-51
2023/08/30 11:05:41;;;;;;;10.38;2.45;;;;;;;21.28;47.16;100501.00;16128749;19;129897;-55
2023/08/30 11:11:05;;;;;;;9.38;2.72;;;;;;;21.31;47.46;100497.63;16115846;19;131628;-50
2023/08/30 11:16:27;;;;;;;10.00;1.98;;;;;;;21.29;47.33;100497.09;16114064;19;129568;-53
2023/08/30 11:21:49;;;;;;;5.25;1.58;;;;;;;21.26;47.26;100492.06;16119100;19;131555;-52
2023/08/30 11:27:12;;;;;;;8.32;2.03;;;;;;;21.22;47.56;100495.41;16117557;19;129539;-52
2023/08/30 11:32:45;;;;;;;10.00;1.80;;;;;;;21.21;47.57;100507.63;16119777;19;131115;-51
2023/08/30 11:38:07;;;;;;;16.92;2.10;;;;;;;21.18;47.58;100513.75;16118415;19;130292;-54
2023/08/30 11:43:29;;;;;;;16.75;2.95;;;;;;;21.17;47.58;100506.50;16115764;19;130244;-55
2023/08/30 11:48:52;;;;;;;22.27;3.40;;;;;;;21.19;47.29;100509.03;16118747;19;131326;-54
2023/08/30 11:54:14;;;;;;;27.90;3.28;;;;;;;21.18;47.66;100510.94;16117923;19;130368;-56
2023/08/30 11:59:36;;;;;;;14.15;2.75;;;;;;;21.20;47.74;100505.13;16120041;19;131003;-53
2023/08/30 12:04:59;;;;;;;26.73;3.30;;;;;;;21.21;47.68;100499.28;16113061;19;130755;-51
2023/08/30 12:10:21;;;;;;;14.68;2.47;;;;;;;21.24;47.56;100505.41;16113312;19;129604;-53
2023/08/30 12:15:43;;;;;;;16.98;2.53;;;;;;;21.26;47.59;100508.78;16115500;19;130401;-55
2023/08/30 12:21:08;;;;;;;20.50;3.05;;;;;;;21.27;47.17;100508.47;16117491;19;132597;-54
2023/08/30 12:26:32;;;;;;;12.13;2.58;;;;;;;21.30;47.35;100515.44;16113262;19;130999;-51
2023/08/30 12:31:54;;;;;;;17.52;2.72;;;;;;;21.31;47.09;100533.81;16112968;19;129732;-54
2023/08/30 12:37:16;;;;;;;13.20;2.20;;;;;;;21.33;46.91;100526.03;16115180;19;130312;-54
2023/08/30 12:42:38;;;;;;;12.40;2.63;;;;;;;21.34;46.78;100527.69;16114394;19;129386;-53
2023/08/30 12:48:00;;;;;;;10.90;2.53;;;;;;;21.33;46.98;100529.66;16115656;19;130167;-55
2023/08/30 12:53:22;;;;;;;11.57;2.80;;;;;;;21.32;46.64;100535.47;16113371;19;129816;-53
2023/08/30 12:58:44;;;;;;;13.88;2.58;;;;;;;21.31;46.70;100539.38;16115111;19;131993;-55
2023/08/30 13:04:06;;;;;;;8.50;2.53;;;;;;;21.29;46.74;100544.41;16119045;19;135983;-54
2023/08/30 13:09:28;;;;;;;10.43;2.22;;;;;;;21.29;46.40;100538.84;16111079;19;129306;-55
2023/08/30 13:14:49;;;;;;;10.93;1.90;;;;;;;21.29;46.38;100538.84;16113114;19;130647;-56
2023/08/30 13:20:12;;;;;;;9.45;2.10;;;;;;;21.29;46.03;100536.88;16110590;19;131234;-52
2023/08/30 13:25:34;;;;;;;9.10;1.92;;;;;;;21.27;46.33;100533.53;16114210;19;129970;-56
2023/08/30 13:30:56;;;;;;;9.98;2.55;;;;;;;21.27;46.36;100539.09;16111835;19;131404;-55
2023/08/30 13:36:18;;;;;;;7.00;1.73;;;;;;;21.26;46.17;100539.38;16112712;19;129681;-53
2023/08/30 13:41:43;;;;;;;6.20;1.53;;;;;;;21.30;46.50;100543.25;16118472;19;129645;-55
2023/08/30 13:47:05;;;;;;;6.57;1.73;;;;;;;21.33;46.21;100548.28;16119299;19;129663;-55
2023/08/30 13:52:30;;;;;;;7.28;1.67;;;;;;;21.37;45.79;100549.41;16113807;19;130186;-52
2023/08/30 13:57:53;;;;;;;4.72;1.73;;;;;;;21.40;46.04;100554.44;16115511;19;130857;-51
2023/08/30 14:03:15;;;;;;;5.70;1.42;;;;;;;21.40;45.77;100560.00;16113679;19;129747;-53
2023/08/30 14:08:37;;;;;;;7.85;1.00;;;;;;;21.41;46.00;100569.16;16110710;19;130776;-56
2023/08/30 14:14:01;;;;;;;4.50;1.48;;;;;;;21.43;45.51;100565.00;16109745;19;130220;-48
2023/08/30 14:19:23;;;;;;;5.35;1.30;;;;;;;21.42;45.55;100568.88;16111577;19;129920;-52
2023/08/30 14:24:46;;;;;;;4.60;1.42;;;;;;;21.45;45.51;100573.91;16111180;19;130942;-56
2023/08/30 14:30:27;;;;;;;4.85;1.13;;;;;;;21.46;45.43;100571.97;16125220;19;130146;-56
2023/08/30 14:35:49;;;;;;;6.45;1.17;;;;;;;21.46;44.95;100572.81;16130195;19;130325;-56
2023/08/30 14:41:12;;;;;;;4.82;1.17;;;;;;;21.47;45.23;100582.84;16124199;19;130984;-54
2023/08/30 14:46:34;;;;;;;7.25;1.30;;;;;;;21.50;45.22;100582.31;16124392;19;129303;-54
2023/08/30 14:51:56;;;;;;;5.07;1.15;;;;;;;21.52;44.96;100580.09;16128655;19;130017;-54
2023/08/30 14:57:18;;;;;;;2.47;0.80;;;;;;;21.57;45.01;100597.91;16123077;19;132193;-54
2023/08/30 15:02:40;;;;;;;3.92;1.00;;;;;;;21.55;44.80;100605.69;16118567;19;130058;-52
2023/08/30 15:08:02;;;;;;;3.85;1.10;;;;;;;21.51;44.37;100617.41;16120118;19;131254;-54
2023/08/30 15:13:24;;;;;;;2.85;1.10;;;;;;;21.50;44.71;100609.28;16111176;19;131379;-55
2023/08/30 15:18:46;;;;;;;4.10;0.93;;;;;;;21.47;44.89;100605.09;16113101;19;130093;-56
2023/08/30 15:24:08;;;;;;;4.15;0.88;;;;;;;21.48;44.60;100612.34;16114513;19;129933;-55
2023/08/30 15:29:31;;;;;;;4.97;1.10;;;;;;;21.48;44.54;100612.34;16112163;19;130322;-55
2023/08/30 15:34:54;;;;;;;3.05;0.98;;;;;;;21.46;44.11;100614.56;16111983;19;130705;-53
2023/08/30 15:40:16;;;;;;;8.50;1.23;;;;;;;21.48;44.39;100617.06;16116555;19;129523;-53
2023/08/30 15:45:38;;;;;;;7.80;0.88;;;;;;;21.43;44.37;100620.66;16119726;19;129736;-56
2023/08/30 15:51:00;;;;;;;6.10;1.10;;;;;;;21.40;44.48;100625.94;16116419;19;129573;-54
2023/08/30 15:56:22;;;;;;;5.65;1.10;;;;;;;21.37;44.26;100632.91;16113055;19;131301;-55
2023/08/30 16:01:44;;;;;;;6.40;1.10;;;;;;;21.38;44.11;100642.91;16120091;19;129866;-55
2023/08/30 16:07:07;;;;;;;4.03;0.98;;;;;;;21.39;44.24;100636.25;16114012;19;130687;-56
2023/08/30 16:12:29;;;;;;;5.60;0.85;;;;;;;21.38;44.32;100640.13;16114248;19;130883;-54
2023/08/30 16:17:51;;;;;;;2.05;0.63;;;;;;;21.35;44.33;100647.06;16115347;19;130918;-55
2023/08/30 16:23:13;;;;;;;3.42;0.95;;;;;;;21.33;44.35;100648.44;16112900;19;130020;-57
2023/08/30 16:28:35;;;;;;;3.92;0.90;;;;;;;21.30;44.22;100644.28;16114073;19;130152;-52
2023/08/30 16:33:58;;;;;;;3.20;0.90;;;;;;;21.30;44.31;100646.19;16113446;19;129066;-53
2023/08/30 16:39:20;;;;;;;2.53;0.68;;;;;;;21.28;44.45;100648.44;16109600;19;131339;-56
2023/08/30 16:44:44;;;;;;;3.55;0.90;;;;;;;21.27;44.30;100636.47;16112241;19;130557;-57
2023/08/30 16:50:06;;;;;;;2.83;0.75;;;;;;;21.27;44.78;100644.81;16110140;19;130848;-52
2023/08/30 16:55:28;;;;;;;1.98;0.75;;;;;;;21.26;44.30;100645.09;16100150;19;131858;-57
2023/08/30 17:00:50;;;;;;;3.70;1.00;;;;;;;21.25;44.51;100651.75;16109688;19;130046;-55
2023/08/30 17:06:12;;;;;;;1.85;0.80;;;;;;;21.21;44.66;100652.28;16105660;19;130566;-57
2023/08/30 17:11:35;;;;;;;2.67;0.82;;;;;;;21.21;44.78;100657.84;16108993;19;130150;-54
2023/08/30 17:16:58;;;;;;;5.03;0.80;;;;;;;21.18;44.90;100652.81;16113345;19;131742;-53
2023/08/30 17:22:20;;;;;;;3.40;0.70;;;;;;;21.17;45.01;100659.50;16116527;19;130341;-56
2023/08/30 17:27:42;;;;;;;4.18;0.85;;;;;;;21.18;45.22;100660.34;16119639;19;129651;-56
2023/08/30 17:33:05;;;;;;;1.83;0.60;;;;;;;21.18;45.40;100666.72;16119276;19;132527;-53
2023/08/30 17:38:26;;;;;;;3.72;1.00;;;;;;;21.19;45.49;100671.19;16115244;19;130389;-51
2023/08/30 17:43:48;;;;;;;3.95;1.10;;;;;;;21.19;45.37;100671.19;16115416;19;129577;-54
2023/08/30 17:49:10;;;;;;;3.78;1.13;;;;;;;21.20;45.61;100678.44;16113688;19;131314;-58
2023/08/30 17:54:35;;;;;;;12.90;1.50;;;;;;;21.19;45.76;100676.75;16111124;19;129278;-49
2023/08/30 17:59:57;;;;;;;10.68;1.50;;;;;;;21.18;45.56;100680.66;16115810;19;131094;-55
2023/08/30 18:05:21;;;;;;;8.43;1.30;;;;;;;21.19;45.95;100679.53;16113735;19;129550;-58
2023/08/30 18:10:43;;;;;;;5.57;1.27;;;;;;;21.19;45.67;100685.09;16117651;19;130029;-51
2023/08/30 18:16:05;;;;;;;6.75;1.58;;;;;;;21.21;45.93;100684.84;16115444;19;131054;-59
2023/08/30 18:21:28;;;;;;;5.50;1.20;;;;;;;21.20;45.97;100677.63;16111052;19;130032;-58
2023/08/30 18:26:51;;;;;;;4.80;1.20;;;;;;;21.20;46.24;100686.78;16110236;19;129717;-56
2023/08/30 18:32:14;;;;;;;4.20;0.90;;;;;;;21.20;46.25;100694.31;16112610;19;130853;-55
2023/08/30 18:37:36;;;;;;;4.07;1.05;;;;;;;21.19;46.09;100699.00;16113875;19;129982;-58
2023/08/30 18:42:58;;;;;;;3.75;0.82;;;;;;;21.19;46.04;100704.56;16114494;19;132041;-59
2023/08/30 18:48:20;;;;;;;7.00;0.88;;;;;;;21.19;46.37;100698.19;16111002;19;129220;-53
2023/08/30 18:53:42;;;;;;;6.82;1.10;;;;;;;21.18;46.26;100708.47;16108881;19;130635;-52
2023/08/30 18:59:04;;;;;;;3.78;0.98;;;;;;;21.18;45.99;100708.47;16111610;19;130242;-51
2023/08/30 19:04:26;;;;;;;3.75;0.82;;;;;;;21.19;46.59;100726.84;16112780;19;130164;-56
2023/08/30 19:09:48;;;;;;;3.30;0.90;;;;;;;21.19;46.44;100740.75;16104399;19;129726;-55
2023/08/30 19:15:10;;;;;;;4.28;0.90;;;;;;;21.19;46.37;100740.75;16115248;19;129775;-58
2023/08/30 19:20:32;;;;;;;3.45;0.90;;;;;;;21.19;46.64;100765.78;16124876;19;129560;-56
2023/08/30 19:25:55;;;;;;;6.68;0.90;;;;;;;21.20;46.50;100766.63;16110995;19;130783;-54
2023/08/30 19:31:17;;;;;;;8.95;0.80;;;;;;;21.15;46.46;100759.09;16113292;19;129924;-58
2023/08/30 19:36:39;;;;;;;5.32;0.88;;;;;;;21.18;46.39;100766.88;16120278;19;130785;-56
2023/08/30 19:42:02;;;;;;;5.88;1.00;;;;;;;21.19;46.71;100760.22;16124291;19;130368;-50
2023/08/30 19:47:24;;;;;;;18.27;1.55;;;;;;;21.22;46.64;100765.25;16117954;19;131293;-56
2023/08/30 19:52:48;;;;;;;11.02;1.50;;;;;;;21.23;46.50;100766.09;16125787;19;129572;-55
2023/08/30 19:58:09;;;;;;;15.90;1.30;;;;;;;21.25;46.99;100791.69;16121124;19;131029;-51
2023/08/30 20:03:32;;;;;;;12.95;1.45;;;;;;;21.26;47.14;100821.19;16124173;19;129842;-55
2023/08/30 20:08:54;;;;;;;8.65;1.05;;;;;;;21.27;47.33;100824.84;16127007;19;129856;-56
2023/08/30 20:14:18;;;;;;;9.60;1.10;;;;;;;21.28;46.95;100790.34;16121809;19;129715;-58
2023/08/30 20:19:40;;;;;;;8.13;1.17;;;;;;;21.29;47.53;100787.28;16123404;19;130909;-55
2023/08/30 20:25:03;;;;;;;5.65;1.08;;;;;;;21.30;47.45;100794.53;16120861;19;129943;-51
2023/08/30 20:30:25;;;;;;;8.52;1.52;;;;;;;21.31;47.56;100781.44;16116589;19;129318;-47
2023/08/30 20:35:47;;;;;;;4.55;1.00;;;;;;;21.32;47.91;100797.88;16124972;19;130087;-60
2023/08/30 20:41:11;;;;;;;6.15;0.82;;;;;;;21.32;47.80;100803.44;16117520;19;129817;-61
2023/08/30 20:46:33;;;;;;;10.88;1.63;;;;;;;21.31;47.60;100803.69;16114806;19;129956;-51
2023/08/30 20:51:55;;;;;;;13.25;1.10;;;;;;;21.32;47.73;100813.72;16116707;19;131208;-58
2023/08/30 20:57:17;;;;;;;6.00;1.00;;;;;;;21.31;47.77;100809.25;16118812;19;130284;-64
2023/08/30 21:02:39;;;;;;;9.73;1.20;;;;;;;21.30;47.33;100810.38;16113336;19;130508;-50
2023/08/30 21:08:03;;;;;;;12.93;1.73;;;;;;;21.30;47.73;100821.50;16116208;19;132577;-56
2023/08/30 21:13:25;;;;;;;12.45;1.80;;;;;;;21.28;47.86;100804.25;16116143;19;129639;-57
2023/08/30 21:18:47;;;;;;;11.13;1.48;;;;;;;21.28;47.87;100812.59;16115328;19;131534;-56
2023/08/30 21:24:11;;;;;;;9.88;1.48;;;;;;;21.24;47.93;100805.88;16114721;19;130387;-55
2023/08/30 21:29:33;;;;;;;15.60;1.70;;;;;;;21.22;47.93;100798.63;16113398;19;131425;-55
2023/08/30 21:34:58;;;;;;;13.93;1.42;;;;;;;21.20;47.84;100794.47;16114810;19;131772;-58
2023/08/30 21:40:20;;;;;;;14.32;1.33;;;;;;;21.18;47.66;100799.44;16111382;19;130193;-56
2023/08/30 21:45:43;;;;;;;12.45;1.52;;;;;;;21.14;47.83;100799.16;16114966;19;129541;-56
2023/08/30 21:51:05;;;;;;;9.85;1.48;;;;;;;21.11;47.85;100802.44;16111497;19;131776;-55
2023/08/30 21:56:27;;;;;;;8.30;1.35;;;;;;;21.09;47.88;100807.44;16110094;19;130555;-55
2023/08/30 22:01:49;;;;;;;5.93;1.27;;;;;;;21.06;48.07;100805.19;16109417;19;130506;-55
2023/08/30 22:07:12;;;;;;;9.13;1.27;;;;;;;21.04;47.84;100805.47;16110441;19;129600;-56
2023/08/30 22:12:34;;;;;;;8.25;1.27;;;;;;;21.03;48.31;100802.97;16108376;19;129986;-55
2023/08/30 22:17:56;;;;;;;8.40;1.13;;;;;;;21.00;48.00;100803.47;16105533;19;130046;-55
2023/08/30 22:23:19;;;;;;;6.20;1.15;;;;;;;20.99;48.20;100815.69;16100668;19;131507;-55
2023/08/30 22:28:41;;;;;;;5.63;0.80;;;;;;;20.97;48.36;100815.97;16104099;19;133847;-56
2023/08/30 22:34:03;;;;;;;8.35;1.20;;;;;;;20.96;48.64;100816.22;16101137;19;130836;-55
2023/08/30 22:39:25;;;;;;;5.95;0.90;;;;;;;20.95;48.99;100820.09;16104107;19;130283;-57
2023/08/30 22:44:47;;;;;;;5.35;0.85;;;;;;;20.92;48.24;100809.53;16105372;19;130767;-55
2023/08/30 22:50:09;;;;;;;8.15;1.05;;;;;;;20.89;48.91;100808.97;16112476;19;131425;-56
2023/08/30 22:55:31;;;;;;;4.50;1.10;;;;;;;20.89;48.83;100813.66;16116985;19;130813;-57
2023/08/30 23:00:53;;;;;;;8.15;1.08;;;;;;;20.87;48.91;100813.94;16119180;19;129922;-56
2023/08/30 23:06:16;;;;;;;6.78;1.00;;;;;;;20.85;48.87;100810.59;16122866;19;129905;-57
2023/08/30 23:11:41;;;;;;;5.68;0.77;;;;;;;20.84;48.77;100817.25;16119775;19;130649;-55
2023/08/30 23:17:03;;;;;;;3.75;0.82;;;;;;;20.83;49.09;100806.41;16119792;19;129973;-57
2023/08/30 23:22:25;;;;;;;3.63;0.80;;;;;;;20.84;49.24;100813.63;16119528;19;130561;-53
2023/08/30 23:27:47;;;;;;;3.72;0.80;;;;;;;20.82;49.02;100816.66;16117176;19;131353;-56
2023/08/30 23:33:09;;;;;;;3.80;0.90;;;;;;;20.82;48.73;100815.84;16108729;19;130865;-53
2023/08/30 23:38:32;;;;;;;2.50;0.60;;;;;;;20.80;49.09;100818.88;16114331;19;130603;-53
2023/08/30 23:43:54;;;;;;;2.90;0.70;;;;;;;20.79;49.19;100825.56;16108853;19;129415;-55
2023/08/30 23:49:17;;;;;;;4.63;1.10;;;;;;;20.78;49.46;100837.78;16108119;19;130775;-50
2023/08/30 23:54:38;;;;;;;4.53;0.55;;;;;;;20.77;49.29;100838.88;16113933;19;130801;-55
